createdAt,value
2018-03-31T00:00:23.237Z,99.90
2018-03-31T00:01:25.240Z,99.90
2018-03-31T00:02:27.258Z,99.90
2018-03-31T00:03:30.034Z,99.90
2018-03-31T00:04:32.059Z,99.90
2018-03-31T00:05:34.063Z,99.90
2018-03-31T00:06:36.824Z,99.90
2018-03-31T00:07:38.852Z,99.90
2018-03-31T00:08:40.863Z,99.90
2018-03-31T00:09:43.615Z,99.90
2018-03-31T00:10:45.632Z,99.90
2018-03-31T00:11:47.646Z,99.90
2018-03-31T00:12:50.437Z,99.90
2018-03-31T00:13:52.438Z,99.90
2018-03-31T00:14:54.443Z,99.90
2018-03-31T00:15:57.213Z,99.90
2018-03-31T00:16:59.994Z,99.90
2018-03-31T00:18:02.795Z,99.90
2018-03-31T00:19:04.801Z,99.90
2018-03-31T00:20:06.790Z,99.90
2018-03-31T00:21:09.613Z,99.90
2018-03-31T00:22:11.646Z,99.90
2018-03-31T00:23:13.647Z,99.90
2018-03-31T00:24:15.660Z,99.90
2018-03-31T00:25:17.677Z,99.90
2018-03-31T00:26:19.674Z,99.90
2018-03-31T00:27:21.682Z,99.90
2018-03-31T00:28:23.690Z,99.90
2018-03-31T00:29:25.685Z,99.90
2018-03-31T00:30:27.675Z,99.90
2018-03-31T00:31:29.673Z,99.90
2018-03-31T00:32:31.687Z,99.90
2018-03-31T00:33:33.702Z,99.90
2018-03-31T00:34:35.721Z,99.90
2018-03-31T00:35:38.505Z,99.90
2018-03-31T00:36:41.289Z,99.90
2018-03-31T00:37:44.047Z,99.90
2018-03-31T00:38:46.843Z,99.90
2018-03-31T00:39:49.620Z,99.90
2018-03-31T00:40:51.620Z,99.90
2018-03-31T00:41:53.635Z,99.90
2018-03-31T00:42:56.407Z,99.90
2018-03-31T00:43:58.430Z,99.90
2018-03-31T00:45:00.455Z,99.90
2018-03-31T00:46:02.454Z,99.90
2018-03-31T00:47:04.456Z,99.90
2018-03-31T00:48:06.449Z,99.90
2018-03-31T00:49:08.461Z,99.90
2018-03-31T00:50:11.276Z,99.90
2018-03-31T00:51:13.270Z,99.90
2018-03-31T00:52:15.282Z,99.90
2018-03-31T00:53:17.283Z,99.90
2018-03-31T00:54:19.284Z,99.90
2018-03-31T00:55:21.347Z,99.90
2018-03-31T00:56:23.352Z,99.90
2018-03-31T00:57:25.345Z,99.90
2018-03-31T00:58:28.117Z,99.90
2018-03-31T00:59:30.888Z,99.90
2018-03-31T01:00:33.790Z,99.90
2018-03-31T01:01:35.803Z,99.90
2018-03-31T01:02:39.308Z,99.90
2018-03-31T01:03:41.318Z,99.90
2018-03-31T01:04:43.316Z,99.90
2018-03-31T01:05:46.877Z,99.90
2018-03-31T01:06:48.878Z,99.90
2018-03-31T01:07:51.660Z,99.90
2018-03-31T01:08:54.468Z,99.90
2018-03-31T01:09:56.470Z,99.90
2018-03-31T01:10:58.530Z,99.90
2018-03-31T01:12:00.516Z,99.90
2018-03-31T01:13:03.321Z,99.90
2018-03-31T01:14:05.312Z,99.90
2018-03-31T01:15:07.324Z,99.90
2018-03-31T01:16:10.103Z,99.90
2018-03-31T01:17:12.880Z,99.90
2018-03-31T01:18:15.642Z,99.90
2018-03-31T01:19:17.648Z,99.90
2018-03-31T01:20:19.642Z,99.90
2018-03-31T01:21:21.675Z,99.90
2018-03-31T01:22:23.678Z,99.90
2018-03-31T01:23:25.666Z,99.90
2018-03-31T01:24:27.658Z,99.90
2018-03-31T01:25:29.655Z,99.90
2018-03-31T01:26:32.432Z,99.90
2018-03-31T01:27:35.202Z,99.90
2018-03-31T01:28:37.188Z,99.90
2018-03-31T01:29:39.197Z,99.90
2018-03-31T01:30:41.216Z,99.90
2018-03-31T01:31:43.241Z,99.90
2018-03-31T01:32:46.011Z,99.90
2018-03-31T01:33:48.772Z,99.90
2018-03-31T01:34:50.784Z,99.90
2018-03-31T01:35:52.791Z,99.90
2018-03-31T01:36:56.430Z,99.90
2018-03-31T01:37:58.492Z,99.90
2018-03-31T01:39:00.516Z,99.90
2018-03-31T01:40:03.286Z,99.90
2018-03-31T01:41:06.048Z,99.90
2018-03-31T01:42:08.058Z,99.90
2018-03-31T01:43:10.131Z,99.90
2018-03-31T01:44:12.121Z,99.90
2018-03-31T01:45:14.116Z,99.90
2018-03-31T01:46:16.912Z,99.90
2018-03-31T01:47:19.253Z,99.90
2018-03-31T01:48:21.233Z,99.90
2018-03-31T01:49:23.241Z,99.90
2018-03-31T01:50:25.243Z,99.90
2018-03-31T01:51:28.016Z,99.90
2018-03-31T01:52:30.830Z,99.90
2018-03-31T01:53:32.820Z,99.90
2018-03-31T01:54:34.821Z,99.90
2018-03-31T01:55:37.574Z,99.90
2018-03-31T01:56:40.361Z,99.90
2018-03-31T01:57:42.398Z,99.90
2018-03-31T01:58:45.200Z,99.90
2018-03-31T01:59:47.966Z,99.90
2018-03-31T02:00:50.724Z,99.90
2018-03-31T02:01:52.724Z,99.90
2018-03-31T02:02:54.745Z,99.90
2018-03-31T02:03:57.772Z,99.90
2018-03-31T02:04:59.790Z,99.90
2018-03-31T02:06:01.783Z,99.90
2018-03-31T02:07:03.775Z,99.90
2018-03-31T02:08:05.799Z,99.90
2018-03-31T02:09:07.806Z,99.90
2018-03-31T02:10:09.921Z,99.90
2018-03-31T02:11:11.941Z,99.90
2018-03-31T02:12:13.935Z,99.90
2018-03-31T02:13:15.955Z,99.90
2018-03-31T02:14:17.973Z,99.90
2018-03-31T02:15:19.960Z,99.90
2018-03-31T02:16:21.973Z,99.90
2018-03-31T02:17:23.969Z,99.90
2018-03-31T02:18:26.008Z,99.90
2018-03-31T02:19:28.012Z,99.90
2018-03-31T02:20:30.026Z,99.90
2018-03-31T02:21:32.019Z,99.90
2018-03-31T02:22:34.024Z,99.90
2018-03-31T02:23:36.029Z,99.90
2018-03-31T02:24:38.022Z,99.90
2018-03-31T02:25:40.789Z,99.90
2018-03-31T02:26:43.559Z,99.90
2018-03-31T02:27:46.356Z,99.90
2018-03-31T02:28:49.121Z,99.90
2018-03-31T02:29:51.882Z,99.90
2018-03-31T02:30:53.886Z,99.90
2018-03-31T02:31:55.886Z,99.90
2018-03-31T02:32:57.886Z,99.90
2018-03-31T02:34:00.665Z,99.90
2018-03-31T02:35:03.447Z,99.90
2018-03-31T02:36:05.448Z,99.90
2018-03-31T02:37:07.438Z,99.90
2018-03-31T02:38:10.207Z,99.90
2018-03-31T02:39:13.728Z,99.90
2018-03-31T02:40:16.515Z,99.90
2018-03-31T02:41:18.526Z,99.90
2018-03-31T02:42:20.531Z,99.90
2018-03-31T02:43:22.525Z,99.90
2018-03-31T02:44:24.577Z,99.90
2018-03-31T02:45:26.579Z,99.90
2018-03-31T02:46:29.364Z,99.90
2018-03-31T02:47:32.145Z,99.90
2018-03-31T02:48:34.919Z,99.90
2018-03-31T02:49:37.692Z,99.90
2018-03-31T02:50:40.458Z,99.90
2018-03-31T02:51:43.223Z,99.90
2018-03-31T02:52:46.009Z,99.90
2018-03-31T02:53:48.006Z,99.90
2018-03-31T02:54:50.024Z,99.90
2018-03-31T02:55:52.049Z,99.90
2018-03-31T02:56:54.061Z,99.90
2018-03-31T02:57:56.818Z,99.90
2018-03-31T02:58:58.829Z,99.90
2018-03-31T03:00:00.890Z,99.90
2018-03-31T03:01:02.891Z,99.90
2018-03-31T03:02:04.897Z,99.90
2018-03-31T03:03:06.902Z,99.90
2018-03-31T03:04:09.685Z,99.90
2018-03-31T03:05:11.720Z,99.90
2018-03-31T03:06:13.720Z,99.90
2018-03-31T03:07:16.492Z,99.90
2018-03-31T03:08:19.269Z,99.90
2018-03-31T03:09:21.264Z,99.90
2018-03-31T03:10:23.276Z,99.90
2018-03-31T03:11:25.283Z,99.90
2018-03-31T03:12:27.286Z,99.90
2018-03-31T03:13:29.288Z,99.90
2018-03-31T03:14:31.306Z,99.90
2018-03-31T03:15:33.318Z,99.90
2018-03-31T03:16:35.321Z,99.90
2018-03-31T03:17:37.369Z,99.90
2018-03-31T03:18:39.367Z,99.90
2018-03-31T03:19:42.129Z,99.90
2018-03-31T03:20:44.133Z,99.90
2018-03-31T03:21:46.178Z,99.90
2018-03-31T03:22:48.193Z,99.90
2018-03-31T03:23:50.190Z,99.90
2018-03-31T03:24:52.189Z,99.90
2018-03-31T03:25:54.217Z,99.90
2018-03-31T03:26:56.219Z,99.90
2018-03-31T03:27:58.227Z,99.90
2018-03-31T03:29:00.285Z,99.90
2018-03-31T03:30:02.283Z,99.90
2018-03-31T03:31:04.285Z,99.90
2018-03-31T03:32:07.055Z,99.90
2018-03-31T03:33:09.821Z,99.90
2018-03-31T03:34:11.821Z,99.90
2018-03-31T03:35:13.827Z,99.90
2018-03-31T03:36:15.858Z,99.90
2018-03-31T03:37:17.855Z,99.90
2018-03-31T03:38:19.948Z,99.90
2018-03-31T03:39:21.932Z,99.90
2018-03-31T03:40:23.939Z,99.90
2018-03-31T03:41:26.709Z,99.90
2018-03-31T03:42:28.808Z,99.90
2018-03-31T03:43:30.808Z,99.90
2018-03-31T03:44:32.818Z,99.90
2018-03-31T03:45:34.818Z,99.90
2018-03-31T03:46:36.836Z,99.90
2018-03-31T03:47:38.834Z,99.90
2018-03-31T03:48:40.838Z,99.90
2018-03-31T03:49:43.588Z,99.90
2018-03-31T03:50:45.584Z,99.90
2018-03-31T03:51:47.618Z,99.90
2018-03-31T03:52:50.392Z,99.90
2018-03-31T03:53:52.389Z,99.90
2018-03-31T03:54:54.384Z,99.90
2018-03-31T03:55:56.497Z,99.90
2018-03-31T03:56:58.506Z,99.90
2018-03-31T03:58:00.537Z,99.90
2018-03-31T03:59:02.536Z,99.90
2018-03-31T04:00:04.532Z,99.90
2018-03-31T04:01:06.518Z,99.90
2018-03-31T04:02:08.548Z,99.90
2018-03-31T04:03:10.567Z,99.90
2018-03-31T04:04:12.564Z,99.90
2018-03-31T04:05:14.556Z,99.90
2018-03-31T04:06:16.576Z,99.90
2018-03-31T04:07:18.630Z,99.90
2018-03-31T04:08:21.395Z,99.90
2018-03-31T04:09:24.156Z,99.90
2018-03-31T04:10:26.153Z,99.90
2018-03-31T04:11:28.149Z,99.90
2018-03-31T04:12:30.162Z,99.90
2018-03-31T04:13:32.933Z,99.90
2018-03-31T04:14:35.723Z,99.90
2018-03-31T04:15:37.783Z,99.90
2018-03-31T04:16:39.869Z,99.90
2018-03-31T04:17:41.875Z,99.90
2018-03-31T04:18:43.865Z,99.90
2018-03-31T04:19:45.868Z,99.90
2018-03-31T04:20:47.885Z,99.90
2018-03-31T04:21:49.878Z,99.90
2018-03-31T04:22:51.892Z,99.90
2018-03-31T04:23:53.883Z,99.90
2018-03-31T04:24:55.881Z,99.90
2018-03-31T04:25:58.659Z,99.90
2018-03-31T04:27:01.629Z,99.90
2018-03-31T04:28:03.633Z,99.90
2018-03-31T04:29:05.634Z,99.90
2018-03-31T04:30:07.657Z,99.90
2018-03-31T04:31:09.721Z,99.90
2018-03-31T04:32:11.728Z,99.90
2018-03-31T04:33:13.718Z,99.90
2018-03-31T04:34:15.720Z,99.90
2018-03-31T04:35:17.736Z,99.90
2018-03-31T04:36:19.737Z,99.90
2018-03-31T04:37:21.789Z,99.90
2018-03-31T04:38:23.740Z,99.90
2018-03-31T04:39:25.743Z,99.90
2018-03-31T04:40:28.540Z,99.90
2018-03-31T04:41:30.535Z,99.90
2018-03-31T04:42:32.519Z,99.90
2018-03-31T04:43:35.290Z,99.90
2018-03-31T04:44:37.286Z,99.90
2018-03-31T04:45:40.116Z,99.90
2018-03-31T04:46:42.121Z,99.90
2018-03-31T04:47:44.886Z,99.90
2018-03-31T04:48:47.685Z,99.90
2018-03-31T04:49:49.676Z,99.90
2018-03-31T04:50:51.670Z,99.90
2018-03-31T04:51:53.764Z,99.90
2018-03-31T04:52:55.780Z,99.90
2018-03-31T04:53:57.780Z,99.90
2018-03-31T04:54:59.785Z,99.90
2018-03-31T04:56:01.809Z,99.90
2018-03-31T04:57:03.875Z,99.90
2018-03-31T04:58:05.880Z,99.90
2018-03-31T04:59:07.887Z,99.90
2018-03-31T05:00:10.064Z,99.90
2018-03-31T05:01:12.177Z,99.90
2018-03-31T05:02:14.943Z,99.90
2018-03-31T05:03:16.982Z,99.90
2018-03-31T05:04:19.012Z,99.90
2018-03-31T05:05:21.006Z,99.90
2018-03-31T05:06:23.031Z,99.90
2018-03-31T05:07:25.032Z,99.90
2018-03-31T05:08:27.030Z,99.90
2018-03-31T05:09:29.033Z,99.90
2018-03-31T05:10:31.150Z,99.90
2018-03-31T05:11:33.159Z,99.90
2018-03-31T05:12:35.174Z,99.90
2018-03-31T05:13:37.201Z,99.90
2018-03-31T05:14:39.186Z,99.90
2018-03-31T05:15:41.210Z,99.90
2018-03-31T05:16:43.214Z,99.90
2018-03-31T05:17:45.230Z,99.90
2018-03-31T05:18:47.237Z,99.90
2018-03-31T05:19:49.252Z,99.90
2018-03-31T05:20:51.269Z,99.90
2018-03-31T05:21:53.296Z,99.90
2018-03-31T05:22:55.307Z,99.90
2018-03-31T05:23:57.314Z,99.90
2018-03-31T05:24:59.313Z,99.90
2018-03-31T05:26:02.253Z,99.90
2018-03-31T05:27:04.258Z,99.90
2018-03-31T05:28:06.278Z,99.90
2018-03-31T05:29:08.290Z,99.90
2018-03-31T05:30:10.505Z,99.90
2018-03-31T05:31:12.658Z,99.90
2018-03-31T05:32:14.662Z,99.90
2018-03-31T05:33:16.679Z,99.90
2018-03-31T05:34:18.682Z,99.90
2018-03-31T05:35:20.708Z,99.90
2018-03-31T05:36:22.709Z,99.90
2018-03-31T05:37:24.745Z,99.90
2018-03-31T05:38:26.739Z,99.90
2018-03-31T05:39:29.506Z,99.90
2018-03-31T05:40:31.524Z,99.90
2018-03-31T05:41:33.526Z,99.90
2018-03-31T05:42:35.559Z,99.90
2018-03-31T05:43:37.561Z,99.90
2018-03-31T05:44:40.322Z,99.90
2018-03-31T05:45:43.127Z,99.90
2018-03-31T05:46:45.123Z,99.90
2018-03-31T05:47:47.152Z,99.90
2018-03-31T05:48:49.177Z,99.90
2018-03-31T05:49:51.953Z,99.90
2018-03-31T05:50:54.729Z,99.90
2018-03-31T05:51:56.730Z,99.90
2018-03-31T05:52:58.746Z,99.90
2018-03-31T05:54:00.782Z,99.90
2018-03-31T05:55:02.800Z,99.90
2018-03-31T05:56:04.803Z,99.90
2018-03-31T05:57:06.810Z,99.90
2018-03-31T05:58:08.830Z,99.90
2018-03-31T05:59:10.923Z,99.90
2018-03-31T06:00:12.988Z,99.90
2018-03-31T06:01:14.979Z,99.90
2018-03-31T06:02:16.976Z,99.90
2018-03-31T06:03:19.762Z,99.90
2018-03-31T06:04:22.530Z,99.90
2018-03-31T06:05:25.293Z,99.90
2018-03-31T06:06:28.078Z,99.90
2018-03-31T06:07:30.182Z,99.90
2018-03-31T06:08:32.186Z,99.90
2018-03-31T06:09:34.187Z,99.90
2018-03-31T06:10:36.178Z,99.90
2018-03-31T06:11:38.178Z,99.90
2018-03-31T06:12:40.168Z,99.90
2018-03-31T06:13:42.181Z,99.90
2018-03-31T06:14:45.678Z,99.90
2018-03-31T06:15:48.467Z,99.90
2018-03-31T06:16:51.265Z,99.90
2018-03-31T06:17:53.262Z,99.90
2018-03-31T06:18:55.307Z,99.90
2018-03-31T06:19:57.297Z,99.90
2018-03-31T06:20:59.296Z,99.90
2018-03-31T06:22:02.067Z,99.90
2018-03-31T06:23:04.829Z,99.90
2018-03-31T06:24:06.883Z,99.90
2018-03-31T06:25:08.976Z,99.90
2018-03-31T06:26:11.144Z,99.90
2018-03-31T06:27:13.207Z,99.90
2018-03-31T06:28:15.205Z,99.90
2018-03-31T06:29:17.222Z,99.90
2018-03-31T06:30:19.242Z,99.90
2018-03-31T06:31:21.239Z,99.90
2018-03-31T06:32:23.223Z,99.90
2018-03-31T06:33:25.216Z,99.90
2018-03-31T06:34:28.023Z,99.90
2018-03-31T06:35:30.038Z,99.90
2018-03-31T06:36:32.042Z,99.90
2018-03-31T06:37:34.044Z,99.90
2018-03-31T06:38:36.032Z,99.90
2018-03-31T06:39:38.039Z,99.90
2018-03-31T06:40:40.046Z,99.90
2018-03-31T06:41:42.042Z,99.90
2018-03-31T06:42:44.043Z,99.90
2018-03-31T06:43:46.047Z,99.90
2018-03-31T06:44:48.085Z,99.90
2018-03-31T06:45:50.863Z,99.90
2018-03-31T06:46:53.636Z,99.90
2018-03-31T06:47:56.413Z,99.90
2018-03-31T06:48:59.201Z,99.90
2018-03-31T06:50:01.992Z,99.90
2018-03-31T06:51:04.001Z,99.90
2018-03-31T06:52:06.002Z,99.90
2018-03-31T06:53:08.762Z,99.90
2018-03-31T06:54:11.717Z,99.90
2018-03-31T06:55:13.735Z,99.90
2018-03-31T06:56:15.751Z,99.90
2018-03-31T06:57:17.795Z,99.90
2018-03-31T06:58:19.816Z,99.90
2018-03-31T06:59:21.818Z,99.90
2018-03-31T07:00:23.850Z,99.90
2018-03-31T07:01:25.849Z,99.90
2018-03-31T07:02:27.856Z,99.90
2018-03-31T07:03:29.877Z,99.90
2018-03-31T07:04:32.647Z,99.90
2018-03-31T07:05:35.434Z,99.90
2018-03-31T07:06:37.437Z,99.90
2018-03-31T07:07:39.436Z,99.90
2018-03-31T07:08:41.439Z,99.90
2018-03-31T07:09:43.432Z,99.90
2018-03-31T07:10:45.441Z,99.90
2018-03-31T07:11:47.496Z,99.90
2018-03-31T07:12:49.495Z,99.90
2018-03-31T07:13:51.491Z,99.90
2018-03-31T07:14:54.247Z,99.90
2018-03-31T07:15:56.290Z,99.90
2018-03-31T07:16:58.308Z,99.90
2018-03-31T07:18:00.309Z,99.90
2018-03-31T07:19:02.320Z,99.90
2018-03-31T07:20:04.340Z,99.90
2018-03-31T07:21:06.363Z,99.90
2018-03-31T07:22:08.365Z,99.90
2018-03-31T07:23:10.479Z,99.90
2018-03-31T07:24:12.498Z,99.90
2018-03-31T07:25:15.268Z,99.90
2018-03-31T07:26:17.303Z,99.90
2018-03-31T07:27:19.304Z,99.90
2018-03-31T07:28:22.080Z,99.90
2018-03-31T07:29:24.856Z,99.90
2018-03-31T07:30:27.635Z,99.90
2018-03-31T07:31:30.407Z,99.90
2018-03-31T07:32:33.175Z,99.90
2018-03-31T07:33:35.939Z,99.90
2018-03-31T07:34:37.967Z,99.90
2018-03-31T07:35:39.987Z,99.90
2018-03-31T07:36:42.026Z,99.90
2018-03-31T07:37:44.803Z,99.90
2018-03-31T07:38:47.613Z,99.90
2018-03-31T07:39:49.621Z,99.90
2018-03-31T07:40:51.679Z,99.90
2018-03-31T07:41:53.720Z,99.30
2018-03-31T07:42:55.734Z,99.90
2018-03-31T07:43:57.756Z,98.70
2018-03-31T07:44:59.793Z,98.20
2018-03-31T07:46:01.818Z,97.90
2018-03-31T07:47:03.832Z,98.10
2018-03-31T07:48:05.846Z,96.70
2018-03-31T07:49:07.872Z,94.70
2018-03-31T07:50:10.743Z,94.80
2018-03-31T07:51:12.820Z,94.80
2018-03-31T07:52:14.859Z,93.30
2018-03-31T07:53:17.296Z,96.20
2018-03-31T07:54:19.303Z,96.50
2018-03-31T07:55:22.099Z,94.70
2018-03-31T07:56:24.314Z,94.50
2018-03-31T07:57:26.335Z,94.70
2018-03-31T07:58:28.389Z,95.40
2018-03-31T07:59:30.407Z,92.40
2018-03-31T08:00:33.186Z,92.70
2018-03-31T08:01:35.990Z,93.80
2018-03-31T08:02:38.024Z,93.80
2018-03-31T08:03:40.824Z,94.50
2018-03-31T08:04:42.817Z,94.50
2018-03-31T08:05:44.810Z,93.40
2018-03-31T08:06:47.622Z,94.40
2018-03-31T08:07:53.709Z,94.40
2018-03-31T08:08:55.719Z,94.30
2018-03-31T08:09:57.755Z,94.40
2018-03-31T08:10:59.754Z,94.10
2018-03-31T08:12:02.530Z,92.00
2018-03-31T08:13:04.542Z,92.00
2018-03-31T08:14:06.757Z,92.20
2018-03-31T08:15:10.290Z,92.30
2018-03-31T08:16:12.415Z,92.30
2018-03-31T08:17:15.214Z,93.20
2018-03-31T08:18:17.236Z,92.90
2018-03-31T08:19:19.278Z,92.20
2018-03-31T08:20:21.338Z,92.00
2018-03-31T08:21:23.842Z,91.00
2018-03-31T08:22:26.628Z,84.20
2018-03-31T08:23:28.654Z,84.30
2018-03-31T08:24:30.697Z,84.60
2018-03-31T08:25:32.698Z,90.00
2018-03-31T08:26:34.725Z,91.30
2018-03-31T08:27:36.730Z,91.60
2018-03-31T08:28:38.796Z,92.10
2018-03-31T08:29:40.815Z,91.00
2018-03-31T08:30:42.821Z,91.00
2018-03-31T08:31:45.599Z,90.80
2018-03-31T08:32:47.623Z,91.20
2018-03-31T08:33:49.653Z,92.50
2018-03-31T08:34:51.680Z,94.30
2018-03-31T08:35:54.147Z,94.60
2018-03-31T08:36:56.182Z,93.40
2018-03-31T08:37:58.970Z,92.90
2018-03-31T08:39:01.157Z,92.80
2018-03-31T08:40:03.238Z,92.50
2018-03-31T08:42:15.117Z,91.10
2018-03-31T08:43:17.123Z,90.70
2018-03-31T08:44:19.143Z,90.10
2018-03-31T08:45:21.169Z,91.00
2018-03-31T08:46:23.185Z,91.80
2018-03-31T08:47:25.209Z,94.00
2018-03-31T08:48:27.217Z,95.40
2018-03-31T08:49:29.350Z,94.50
2018-03-31T08:50:31.386Z,94.20
2018-03-31T08:51:33.403Z,93.80
2018-03-31T08:52:36.174Z,93.30
2018-03-31T08:53:38.179Z,93.40
2018-03-31T08:54:40.209Z,93.70
2018-03-31T08:55:42.209Z,91.90
2018-03-31T08:56:44.214Z,92.50
2018-03-31T08:57:46.205Z,91.80
2018-03-31T08:58:48.204Z,91.90
2018-03-31T08:59:50.202Z,92.30
2018-03-31T09:00:52.220Z,93.00
2018-03-31T09:01:54.242Z,92.20
2018-03-31T09:02:56.248Z,92.10
2018-03-31T09:03:59.194Z,92.20
2018-03-31T09:05:01.579Z,90.90
2018-03-31T09:06:03.601Z,90.80
2018-03-31T09:07:06.397Z,91.00
2018-03-31T09:08:08.440Z,91.00
2018-03-31T09:09:11.525Z,89.70
2018-03-31T09:10:13.520Z,89.50
2018-03-31T09:11:15.556Z,89.80
2018-03-31T09:22:02.584Z,89.20
2018-03-31T09:23:04.611Z,89.90
2018-03-31T09:24:06.636Z,87.20
2018-03-31T09:25:08.632Z,85.90
2018-03-31T09:26:12.342Z,83.40
2018-03-31T09:27:14.351Z,84.00
2018-03-31T09:28:16.376Z,85.70
2018-03-31T09:29:18.391Z,85.70
2018-03-31T09:30:20.413Z,86.80
2018-03-31T09:44:23.264Z,90.80
2018-03-31T09:45:25.301Z,90.80
2018-03-31T09:46:27.312Z,90.90
2018-03-31T09:47:29.328Z,90.90
2018-03-31T09:48:31.338Z,90.00
2018-03-31T09:49:33.324Z,89.70
2018-03-31T09:50:35.349Z,89.90
2018-03-31T09:51:37.383Z,91.10
2018-03-31T09:52:39.410Z,91.00
2018-03-31T09:53:41.401Z,90.90
2018-03-31T09:54:43.383Z,91.40
2018-03-31T09:55:45.425Z,91.20
2018-03-31T09:56:47.420Z,90.60
2018-03-31T09:57:50.241Z,92.00
2018-03-31T09:58:52.620Z,92.00
2018-03-31T09:59:54.604Z,92.10
2018-03-31T10:01:02.199Z,91.50
2018-03-31T10:02:04.189Z,87.50
2018-03-31T10:03:06.206Z,86.00
2018-03-31T10:04:08.228Z,84.30
2018-03-31T10:05:10.409Z,86.40
2018-03-31T10:06:12.658Z,85.00
2018-03-31T10:07:14.666Z,85.20
2018-03-31T10:08:16.693Z,86.50
2018-03-31T10:09:18.709Z,85.70
2018-03-31T10:10:21.495Z,89.00
2018-03-31T10:11:23.486Z,88.20
2018-03-31T10:12:25.568Z,89.70
2018-03-31T10:13:27.545Z,89.70
2018-03-31T10:14:29.829Z,91.30
2018-03-31T10:15:31.839Z,91.80
2018-03-31T10:16:33.845Z,91.30
2018-03-31T10:17:36.631Z,91.70
2018-03-31T10:18:39.006Z,91.70
2018-03-31T10:19:42.177Z,91.20
2018-03-31T10:20:44.942Z,90.40
2018-03-31T10:21:47.689Z,90.10
2018-03-31T10:22:49.673Z,90.10
2018-03-31T10:23:52.433Z,90.40
2018-03-31T10:24:54.438Z,90.40
2018-03-31T10:25:56.469Z,92.70
2018-03-31T10:26:59.230Z,90.30
2018-03-31T10:28:01.219Z,90.30
2018-03-31T10:29:03.995Z,90.40
2018-03-31T10:30:06.024Z,90.30
2018-03-31T10:31:08.035Z,90.30
2018-03-31T10:32:10.115Z,89.70
2018-03-31T10:33:12.408Z,90.60
2018-03-31T10:34:14.429Z,90.20
2018-03-31T10:35:16.462Z,89.60
2018-03-31T10:36:18.587Z,90.00
2018-03-31T10:37:20.599Z,90.40
2018-03-31T10:38:24.382Z,91.10
2018-03-31T10:39:26.462Z,89.30
2018-03-31T10:40:28.439Z,88.70
2018-03-31T10:41:30.470Z,88.70
2018-03-31T10:42:32.497Z,88.50
2018-03-31T10:43:34.562Z,88.00
2018-03-31T10:44:36.564Z,85.40
2018-03-31T10:45:38.584Z,87.50
2018-03-31T10:46:41.370Z,88.20
2018-03-31T10:47:44.123Z,88.00
2018-03-31T10:48:46.123Z,87.90
2018-03-31T10:49:48.127Z,85.90
2018-03-31T10:50:50.157Z,85.40
2018-03-31T10:51:52.177Z,83.90
2018-03-31T10:52:54.952Z,77.90
2018-03-31T10:53:57.741Z,79.40
2018-03-31T10:54:59.739Z,79.60
2018-03-31T10:56:01.759Z,78.80
2018-03-31T10:57:03.771Z,81.90
2018-03-31T10:58:05.776Z,82.10
2018-03-31T10:59:08.546Z,84.90
2018-03-31T11:00:11.487Z,84.90
2018-03-31T11:01:13.494Z,84.90
2018-03-31T11:02:16.253Z,85.10
2018-03-31T11:03:18.252Z,84.90
2018-03-31T11:04:20.277Z,84.00
2018-03-31T11:05:23.362Z,84.50
2018-03-31T11:06:26.647Z,83.80
2018-03-31T11:07:28.682Z,83.70
2018-03-31T11:08:30.668Z,81.20
2018-03-31T11:09:32.658Z,84.00
2018-03-31T11:10:34.657Z,84.90
2018-03-31T11:11:36.669Z,84.80
2018-03-31T11:12:38.678Z,79.90
2018-03-31T11:13:40.697Z,77.90
2018-03-31T11:14:42.705Z,80.30
2018-03-31T11:15:44.727Z,79.00
2018-03-31T11:16:46.759Z,80.40
2018-03-31T11:17:48.744Z,81.70
2018-03-31T11:18:50.739Z,77.70
2018-03-31T11:19:52.748Z,79.10
2018-03-31T11:20:54.786Z,78.80
2018-03-31T11:21:57.558Z,79.10
2018-03-31T11:23:00.737Z,82.60
2018-03-31T11:24:02.764Z,81.90
2018-03-31T11:25:04.764Z,82.80
2018-03-31T11:26:06.774Z,83.00
2018-03-31T11:27:08.769Z,81.60
2018-03-31T11:28:11.568Z,81.50
2018-03-31T11:29:13.574Z,81.40
2018-03-31T11:30:15.576Z,83.60
2018-03-31T11:31:17.595Z,81.70
2018-03-31T11:32:19.647Z,79.60
2018-03-31T11:33:21.681Z,81.10
2018-03-31T11:34:23.667Z,81.60
2018-03-31T11:35:25.692Z,80.70
2018-03-31T11:36:27.718Z,83.10
2018-03-31T11:37:30.492Z,79.70
2018-03-31T11:38:32.518Z,79.80
2018-03-31T11:39:34.603Z,80.20
2018-03-31T11:40:36.631Z,79.10
2018-03-31T11:41:38.632Z,79.30
2018-03-31T11:42:40.621Z,80.20
2018-03-31T11:43:42.642Z,81.00
2018-03-31T11:44:44.654Z,80.60
2018-03-31T11:45:46.682Z,82.00
2018-03-31T11:46:49.456Z,84.50
2018-03-31T11:47:52.224Z,85.30
2018-03-31T11:48:54.239Z,85.30
2018-03-31T11:49:56.258Z,82.90
2018-03-31T11:50:59.045Z,79.00
2018-03-31T11:52:01.788Z,79.60
2018-03-31T11:53:03.784Z,79.60
2018-03-31T11:54:05.941Z,80.40
2018-03-31T11:55:09.541Z,83.30
2018-03-31T11:56:11.613Z,83.20
2018-03-31T11:57:14.392Z,84.10
2018-03-31T11:58:16.396Z,84.20
2018-03-31T11:59:18.396Z,84.60
2018-03-31T12:00:20.455Z,83.20
2018-03-31T12:01:22.474Z,80.80
2018-03-31T12:02:24.485Z,83.40
2018-03-31T12:03:26.523Z,81.80
2018-03-31T12:04:29.300Z,81.60
2018-03-31T12:05:32.062Z,80.20
2018-03-31T12:06:34.829Z,77.90
2018-03-31T12:07:36.823Z,77.90
2018-03-31T12:08:38.833Z,76.20
2018-03-31T12:09:40.853Z,75.90
2018-03-31T12:10:42.874Z,77.70
2018-03-31T12:11:44.897Z,75.70
2018-03-31T12:12:46.878Z,75.40
2018-03-31T12:13:48.881Z,76.60
2018-03-31T12:14:50.936Z,78.10
2018-03-31T12:15:52.930Z,77.90
2018-03-31T12:16:54.931Z,78.40
2018-03-31T12:17:56.926Z,79.30
2018-03-31T12:18:58.973Z,78.10
2018-03-31T12:20:01.000Z,77.20
2018-03-31T12:21:06.014Z,78.30
2018-03-31T12:22:08.820Z,80.00
2018-03-31T12:23:10.971Z,79.80
2018-03-31T12:24:13.283Z,80.90
2018-03-31T12:25:15.317Z,80.80
2018-03-31T12:26:17.373Z,79.10
2018-03-31T12:27:19.582Z,80.10
2018-03-31T12:28:21.616Z,79.10
2018-03-31T12:29:23.632Z,77.10
2018-03-31T12:30:25.837Z,75.70
2018-03-31T12:31:27.928Z,75.50
2018-03-31T12:32:29.969Z,77.60
2018-03-31T12:33:32.001Z,75.40
2018-03-31T12:34:34.005Z,77.40
2018-03-31T12:35:36.045Z,78.00
2018-03-31T12:36:39.073Z,80.00
2018-03-31T12:37:41.114Z,77.60
2018-03-31T12:38:43.216Z,76.70
2018-03-31T12:39:45.976Z,75.10
2018-03-31T12:40:48.884Z,75.70
2018-03-31T12:41:55.658Z,77.10
2018-03-31T12:42:57.745Z,77.10
2018-03-31T12:43:59.787Z,79.10
2018-03-31T12:45:02.409Z,76.90
2018-03-31T12:46:06.007Z,79.40
2018-03-31T12:47:08.006Z,79.40
2018-03-31T12:48:12.115Z,80.50
2018-03-31T12:49:14.450Z,80.60
2018-03-31T12:50:16.887Z,79.70
2018-03-31T12:51:18.916Z,79.90
2018-03-31T12:52:20.893Z,80.80
2018-03-31T12:53:22.967Z,81.80
2018-03-31T12:54:25.026Z,82.50
2018-03-31T12:55:27.080Z,83.90
2018-03-31T12:56:29.122Z,82.20
2018-03-31T12:57:31.111Z,80.10
2018-03-31T12:58:33.522Z,78.40
2018-03-31T12:59:35.682Z,78.90
2018-03-31T13:00:38.501Z,74.50
2018-03-31T13:01:41.500Z,74.30
2018-03-31T13:02:43.666Z,75.50
2018-03-31T13:03:46.722Z,75.70
2018-03-31T13:04:48.785Z,75.60
2018-03-31T13:05:50.891Z,73.60
2018-03-31T13:19:48.684Z,72.10
2018-03-31T13:20:50.746Z,72.70
2018-03-31T13:21:52.762Z,72.40
2018-03-31T13:22:54.940Z,70.70
2018-03-31T13:23:56.913Z,70.30
2018-03-31T13:24:58.953Z,70.10
2018-03-31T13:26:00.976Z,70.20
2018-03-31T13:27:02.981Z,70.30
2018-03-31T13:28:04.998Z,71.80
2018-03-31T13:29:07.018Z,70.00
2018-03-31T13:30:09.021Z,70.20
2018-03-31T13:31:11.941Z,71.90
2018-03-31T13:32:14.296Z,72.70
2018-03-31T13:33:16.319Z,71.60
2018-03-31T13:34:18.361Z,71.20
2018-03-31T13:35:20.446Z,70.30
2018-03-31T13:36:22.452Z,68.00
2018-03-31T13:37:24.674Z,68.90
2018-03-31T13:38:26.795Z,68.60
2018-03-31T13:39:28.818Z,68.20
2018-03-31T13:40:31.252Z,68.10
2018-03-31T13:41:33.361Z,69.20
2018-03-31T13:42:35.438Z,69.60
2018-03-31T13:43:37.621Z,69.50
2018-03-31T13:44:40.423Z,69.10
2018-03-31T13:45:42.482Z,71.30
2018-03-31T13:46:44.516Z,72.80
2018-03-31T13:47:46.566Z,71.50
2018-03-31T13:48:48.571Z,69.40
2018-03-31T13:49:50.582Z,69.30
2018-03-31T13:50:52.590Z,67.90
2018-03-31T13:51:57.730Z,70.50
2018-03-31T13:52:59.745Z,68.00
2018-03-31T13:54:01.772Z,70.30
2018-03-31T13:55:03.796Z,69.80
2018-03-31T13:56:05.845Z,70.80
2018-03-31T13:57:13.006Z,67.30
2018-03-31T13:58:15.451Z,67.00